Time;durP1;ratioP1;P1;durP2;ratioP2;P2;SDS_P1;SDS_P2;PMS_P1;PMS_P2;Temp;Humidity;BMP_temperature;BMP_pressure;BME280_temperature;BME280_humidity;BME280_pressure;Samples;Min_cycle;Max_cycle;Signal;HPM_P1;HPM_P2
2022/07/28 00:00:25;;;;;;;17.73;4.82;;;;;;;;;;5038614;28;20057;-67
2022/07/28 00:03:05;;;;;;;17.02;5.10;;;;;;;;;;5036114;28;20053;-69
2022/07/28 00:05:31;;;;;;;16.42;4.63;;;;;;;;;;5035750;28;20045;-70
2022/07/28 00:07:57;;;;;;;18.33;4.65;;;;;;;;;;5035776;28;20045;-69
2022/07/28 00:10:23;;;;;;;19.75;4.80;;;;;;;;;;5035183;28;20061;-67
2022/07/28 00:12:49;;;;;;;14.95;4.65;;;;;;;;;;5040509;28;20072;-68
2022/07/28 00:15:15;;;;;;;18.48;5.15;;;;;;;;;;5039951;28;20136;-68
2022/07/28 00:17:40;;;;;;;20.10;4.93;;;;;;;;;;5036707;28;20048;-69
2022/07/28 00:20:07;;;;;;;16.98;5.10;;;;;;;;;;5039122;28;20068;-68
2022/07/28 00:22:33;;;;;;;19.23;4.72;;;;;;;;;;5038131;28;20422;-68
2022/07/28 00:24:58;;;;;;;23.08;5.00;;;;;;;;;;5039552;28;20060;-69
2022/07/28 00:27:24;;;;;;;19.13;4.63;;;;;;;;;;5035254;28;20169;-69
2022/07/28 00:29:51;;;;;;;20.83;4.60;;;;;;;;;;5038272;28;20057;-67
2022/07/28 00:32:19;;;;;;;20.65;4.57;;;;;;;;;;5040431;28;20041;-68
2022/07/28 00:34:45;;;;;;;20.95;4.72;;;;;;;;;;5036422;28;20560;-68
2022/07/28 00:37:11;;;;;;;16.00;4.90;;;;;;;;;;5040015;28;20332;-68
2022/07/28 00:39:37;;;;;;;15.98;4.32;;;;;;;;;;5040692;28;20068;-68
2022/07/28 00:42:03;;;;;;;17.23;4.50;;;;;;;;;;5040821;28;20059;-69
2022/07/28 00:44:29;;;;;;;17.42;4.53;;;;;;;;;;5036034;28;20053;-68
2022/07/28 00:46:54;;;;;;;15.43;4.75;;;;;;;;;;5043751;28;20135;-69
2022/07/28 00:49:21;;;;;;;14.73;4.40;;;;;;;;;;5039728;28;20628;-67
2022/07/28 00:51:47;;;;;;;15.55;4.60;;;;;;;;;;5041303;28;20048;-67
2022/07/28 00:54:13;;;;;;;17.00;4.43;;;;;;;;;;5043481;28;20049;-69
2022/07/28 00:56:39;;;;;;;18.25;4.45;;;;;;;;;;5039028;28;20689;-69
2022/07/28 00:59:04;;;;;;;13.57;4.03;;;;;;;;;;5044071;28;20049;-67
2022/07/28 01:01:31;;;;;;;13.18;4.10;;;;;;;;;;5036801;28;20081;-66
2022/07/28 01:04:01;;;;;;;17.48;4.38;;;;;;;;;;5042764;28;20061;-68
2022/07/28 01:06:33;;;;;;;13.95;4.45;;;;;;;;;;5042965;28;20045;-67
2022/07/28 01:09:31;;;;;;;19.63;5.20;;;;;;;;;;5040357;28;20091;-68
2022/07/28 01:12:06;;;;;;;18.10;4.82;;;;;;;;;;5046314;28;20057;-66
2022/07/28 01:14:47;;;;;;;17.40;5.10;;;;;;;;;;5042455;28;20147;-66
2022/07/28 01:17:25;;;;;;;23.23;5.05;;;;;;;;;;5041900;28;20529;-67
2022/07/28 01:20:32;;;;;;;14.02;4.93;;;;;;;;;;5041918;28;20041;-68
2022/07/28 01:23:10;;;;;;;20.65;5.05;;;;;;;;;;5021955;28;20971;-66
2022/07/28 01:25:48;;;;;;;14.27;4.70;;;;;;;;;;5022933;28;20059;-68
2022/07/28 01:28:27;;;;;;;16.08;5.22;;;;;;;;;;5022188;28;20044;-66
2022/07/28 01:30:56;;;;;;;14.10;4.40;;;;;;;;;;5022371;28;20171;-67
2022/07/28 01:33:46;;;;;;;17.00;4.90;;;;;;;;;;5019873;28;20049;-68
2022/07/28 01:36:19;;;;;;;17.20;4.43;;;;;;;;;;5018215;28;20092;-68
2022/07/28 01:38:47;;;;;;;17.40;4.70;;;;;;;;;;5020487;28;20056;-66
2022/07/28 01:41:22;;;;;;;16.83;4.40;;;;;;;;;;5021271;28;20410;-68
2022/07/28 01:43:57;;;;;;;19.02;5.68;;;;;;;;;;5019863;28;20442;-68
2022/07/28 01:46:24;;;;;;;15.65;4.80;;;;;;;;;;5023272;28;20525;-68
2022/07/28 01:48:51;;;;;;;15.27;4.80;;;;;;;;;;5020583;28;20053;-67
2022/07/28 01:51:19;;;;;;;18.95;4.72;;;;;;;;;;5021574;28;20053;-71
2022/07/28 01:53:48;;;;;;;17.20;5.15;;;;;;;;;;5020079;28;20117;-67
2022/07/28 01:56:16;;;;;;;21.02;4.97;;;;;;;;;;5027005;28;20052;-72
2022/07/28 01:58:43;;;;;;;14.98;4.60;;;;;;;;;;5042468;28;20524;-73
2022/07/28 02:01:12;;;;;;;20.20;5.43;;;;;;;;;;5040809;28;20041;-69
2022/07/28 02:03:40;;;;;;;17.92;5.35;;;;;;;;;;5040268;28;20057;-68
2022/07/28 02:06:07;;;;;;;18.88;5.40;;;;;;;;;;5040651;28;20064;-67
2022/07/28 02:08:36;;;;;;;15.15;5.22;;;;;;;;;;5044676;28;20055;-68
2022/07/28 02:13:49;;;;;;;19.52;5.00;;;;;;;;;;5040105;28;20045;-69
2022/07/28 02:16:19;;;;;;;17.20;4.93;;;;;;;;;;5043066;28;20151;-67
2022/07/28 02:18:47;;;;;;;15.52;4.68;;;;;;;;;;5044134;28;20084;-68
2022/07/28 02:21:14;;;;;;;15.85;4.88;;;;;;;;;;5041611;28;20410;-69
2022/07/28 02:23:44;;;;;;;19.23;5.55;;;;;;;;;;5038281;28;20564;-67
2022/07/28 02:26:12;;;;;;;13.05;4.80;;;;;;;;;;5040339;28;20048;-67
2022/07/28 02:28:42;;;;;;;20.00;5.07;;;;;;;;;;5038819;28;20056;-68
2022/07/28 02:31:15;;;;;;;18.58;4.80;;;;;;;;;;5040258;28;20550;-67
2022/07/28 02:33:43;;;;;;;11.70;4.20;;;;;;;;;;5040626;28;20075;-69
2022/07/28 02:36:29;;;;;;;12.75;4.72;;;;;;;;;;5037976;28;20057;-67
2022/07/28 02:39:06;;;;;;;19.55;4.90;;;;;;;;;;5040988;28;20068;-68
2022/07/28 02:41:38;;;;;;;13.80;4.38;;;;;;;;;;5040610;28;20099;-67
2022/07/28 02:44:10;;;;;;;17.10;4.38;;;;;;;;;;5040803;28;20650;-66
2022/07/28 02:46:41;;;;;;;16.52;4.97;;;;;;;;;;5039052;28;20076;-66
2022/07/28 02:49:12;;;;;;;15.23;4.57;;;;;;;;;;5038874;28;20053;-68
2022/07/28 02:51:41;;;;;;;16.23;4.35;;;;;;;;;;5040223;28;20052;-66
2022/07/28 02:54:07;;;;;;;13.45;4.15;;;;;;;;;;5042524;28;20037;-66
2022/07/28 02:56:34;;;;;;;17.50;4.70;;;;;;;;;;5042251;28;20060;-67
2022/07/28 02:59:01;;;;;;;16.92;5.03;;;;;;;;;;5043984;28;20130;-69
2022/07/28 03:01:27;;;;;;;19.25;4.50;;;;;;;;;;5039104;28;20136;-67
2022/07/28 03:03:54;;;;;;;16.83;4.88;;;;;;;;;;5040853;28;20059;-67
2022/07/28 03:06:22;;;;;;;18.08;4.97;;;;;;;;;;5038377;28;20045;-69
2022/07/28 03:08:49;;;;;;;14.20;4.45;;;;;;;;;;5035778;28;20606;-68
2022/07/28 03:11:15;;;;;;;18.75;5.05;;;;;;;;;;5040146;28;20434;-69
2022/07/28 03:13:41;;;;;;;16.98;4.30;;;;;;;;;;5040058;28;20043;-71
2022/07/28 03:16:07;;;;;;;16.60;4.72;;;;;;;;;;5044494;28;20048;-67
2022/07/28 03:18:33;;;;;;;16.40;4.95;;;;;;;;;;5037713;28;20045;-67
2022/07/28 03:20:59;;;;;;;16.08;4.88;;;;;;;;;;5039695;28;20083;-67
2022/07/28 03:23:40;;;;;;;18.65;5.00;;;;;;;;;;5036832;28;20052;-68
2022/07/28 03:26:22;;;;;;;20.17;4.68;;;;;;;;;;5038496;28;20053;-68
2022/07/28 03:28:51;;;;;;;14.38;4.70;;;;;;;;;;5042290;28;20048;-66
2022/07/28 03:31:19;;;;;;;14.80;5.28;;;;;;;;;;5037178;28;20041;-67
2022/07/28 03:33:46;;;;;;;16.88;4.68;;;;;;;;;;5037432;28;20128;-66
2022/07/28 03:36:18;;;;;;;15.30;4.70;;;;;;;;;;5035313;28;20072;-66
2022/07/28 03:38:58;;;;;;;13.98;4.68;;;;;;;;;;5037034;28;20041;-68
2022/07/28 03:41:25;;;;;;;15.02;4.65;;;;;;;;;;5040860;28;20056;-67
2022/07/28 03:43:52;;;;;;;16.90;5.07;;;;;;;;;;5038928;28;20323;-66
2022/07/28 03:46:20;;;;;;;19.20;5.10;;;;;;;;;;5039977;28;20497;-68
2022/07/28 03:48:46;;;;;;;21.67;5.05;;;;;;;;;;5039815;28;20099;-68
2022/07/28 03:51:12;;;;;;;16.30;4.60;;;;;;;;;;5040471;28;21695;-67
2022/07/28 03:53:40;;;;;;;14.60;4.78;;;;;;;;;;5039401;28;20048;-68
2022/07/28 03:56:05;;;;;;;16.38;4.78;;;;;;;;;;5040260;28;20045;-67
2022/07/28 03:58:31;;;;;;;15.93;5.28;;;;;;;;;;5039686;28;20060;-66
2022/07/28 04:00:57;;;;;;;16.15;4.85;;;;;;;;;;5040013;28;20571;-68
2022/07/28 04:03:24;;;;;;;19.95;4.85;;;;;;;;;;5041400;28;20518;-67
2022/07/28 04:05:50;;;;;;;16.08;4.93;;;;;;;;;;5041279;28;20053;-73
2022/07/28 04:08:16;;;;;;;13.23;5.20;;;;;;;;;;5036755;28;20482;-67
2022/07/28 04:10:41;;;;;;;15.68;5.30;;;;;;;;;;5039102;28;20080;-69
2022/07/28 04:13:07;;;;;;;18.60;5.43;;;;;;;;;;5040701;28;20075;-67
2022/07/28 04:15:33;;;;;;;16.38;4.90;;;;;;;;;;5040090;28;21779;-72
2022/07/28 04:18:00;;;;;;;16.75;5.15;;;;;;;;;;5034645;28;20115;-66
2022/07/28 04:20:27;;;;;;;12.15;4.72;;;;;;;;;;5039823;28;20059;-68
2022/07/28 04:22:54;;;;;;;16.15;5.28;;;;;;;;;;5044082;28;20087;-67
2022/07/28 04:25:23;;;;;;;22.77;5.18;;;;;;;;;;5039656;28;20064;-71
2022/07/28 04:27:50;;;;;;;21.60;5.60;;;;;;;;;;5043036;28;20052;-67
2022/07/28 04:30:18;;;;;;;24.27;5.40;;;;;;;;;;5040666;28;21187;-69
2022/07/28 04:32:48;;;;;;;24.55;5.65;;;;;;;;;;5042375;28;20041;-69
2022/07/28 04:35:16;;;;;;;14.45;5.18;;;;;;;;;;5040867;28;20064;-69
2022/07/28 04:37:43;;;;;;;18.58;5.22;;;;;;;;;;5037399;28;20037;-68
2022/07/28 04:40:10;;;;;;;18.85;5.55;;;;;;;;;;5039972;28;20099;-69
2022/07/28 04:42:38;;;;;;;20.58;5.13;;;;;;;;;;5044226;28;20045;-69
2022/07/28 04:45:06;;;;;;;20.02;4.90;;;;;;;;;;5042831;28;20060;-66
2022/07/28 04:47:32;;;;;;;19.23;5.22;;;;;;;;;;5043366;28;20049;-68
2022/07/28 04:49:58;;;;;;;13.13;5.30;;;;;;;;;;5044558;28;20076;-73
2022/07/28 04:52:25;;;;;;;16.65;5.15;;;;;;;;;;5043505;28;20045;-68
2022/07/28 04:54:52;;;;;;;16.77;5.28;;;;;;;;;;5034885;28;20510;-68
2022/07/28 04:57:18;;;;;;;16.85;5.57;;;;;;;;;;5039265;28;20041;-70
2022/07/28 04:59:44;;;;;;;20.92;5.25;;;;;;;;;;5041345;28;20123;-65
2022/07/28 05:02:11;;;;;;;13.98;5.20;;;;;;;;;;5045233;28;20426;-65
2022/07/28 05:04:37;;;;;;;16.92;5.78;;;;;;;;;;5042426;28;20053;-64
2022/07/28 05:07:04;;;;;;;20.45;5.88;;;;;;;;;;5043644;28;20482;-65
2022/07/28 05:09:30;;;;;;;17.40;5.43;;;;;;;;;;5041883;28;20049;-66
2022/07/28 05:11:57;;;;;;;15.13;6.00;;;;;;;;;;5044093;28;20052;-70
2022/07/28 05:14:23;;;;;;;16.60;5.55;;;;;;;;;;5041464;28;20119;-69
2022/07/28 05:16:49;;;;;;;24.13;5.60;;;;;;;;;;5028097;28;20045;-74
2022/07/28 05:19:16;;;;;;;18.13;6.07;;;;;;;;;;5043694;28;20041;-75
2022/07/28 05:21:42;;;;;;;19.17;5.80;;;;;;;;;;5038511;28;20151;-71
2022/07/28 05:24:08;;;;;;;23.60;6.18;;;;;;;;;;5032231;28;20121;-70
2022/07/28 05:26:34;;;;;;;17.65;5.70;;;;;;;;;;5033964;28;20060;-70
2022/07/28 05:28:59;;;;;;;19.50;5.40;;;;;;;;;;5038758;28;20041;-70
2022/07/28 05:31:26;;;;;;;17.58;6.07;;;;;;;;;;5035379;28;20041;-70
2022/07/28 05:33:52;;;;;;;18.65;6.63;;;;;;;;;;5033952;28;20406;-71
2022/07/28 05:36:18;;;;;;;22.15;6.30;;;;;;;;;;5037135;28;20041;-74
2022/07/28 05:38:43;;;;;;;17.52;6.30;;;;;;;;;;5047882;28;20731;-74
2022/07/28 05:41:09;;;;;;;22.23;6.20;;;;;;;;;;5041363;28;20081;-77
2022/07/28 05:43:36;;;;;;;21.58;6.07;;;;;;;;;;5044623;28;20042;-74
2022/07/28 05:46:03;;;;;;;24.60;8.13;;;;;;;;;;5035954;28;20052;-72
2022/07/28 05:48:29;;;;;;;16.63;6.10;;;;;;;;;;5038151;28;20451;-72
2022/07/28 05:50:55;;;;;;;17.73;5.70;;;;;;;;;;5038240;28;20055;-70
2022/07/28 05:53:21;;;;;;;20.10;5.70;;;;;;;;;;5046425;28;20040;-71
2022/07/28 05:55:48;;;;;;;16.40;5.95;;;;;;;;;;5038017;28;20053;-71
2022/07/28 05:58:14;;;;;;;16.17;5.93;;;;;;;;;;5038129;28;20494;-71
2022/07/28 06:00:39;;;;;;;24.83;6.07;;;;;;;;;;5042002;28;20040;-73
2022/07/28 06:03:06;;;;;;;27.58;6.22;;;;;;;;;;5040423;28;20060;-75
2022/07/28 06:05:32;;;;;;;18.60;5.10;;;;;;;;;;5041713;28;20075;-70
2022/07/28 06:07:58;;;;;;;18.45;5.57;;;;;;;;;;5034134;28;20053;-68
2022/07/28 06:10:57;;;;;;;22.45;5.95;;;;;;;;;;5029185;28;20442;-65
2022/07/28 06:13:13;;;;;;;16.13;5.53;;;;;;;;;;5035654;28;20148;-69
2022/07/28 06:15:40;;;;;;;14.65;5.32;;;;;;;;;;5031958;28;20048;-73
2022/07/28 06:18:06;;;;;;;28.92;6.10;;;;;;;;;;5046004;28;20037;-70
2022/07/28 06:20:31;;;;;;;16.10;6.15;;;;;;;;;;5041711;28;20052;-69
2022/07/28 06:22:57;;;;;;;25.52;6.00;;;;;;;;;;5040317;28;20522;-70
2022/07/28 06:25:26;;;;;;;14.02;5.85;;;;;;;;;;5042425;28;20041;-70
2022/07/28 06:27:54;;;;;;;15.90;6.05;;;;;;;;;;5034806;28;20055;-71
2022/07/28 06:30:22;;;;;;;20.10;6.10;;;;;;;;;;5039668;28;20052;-70
2022/07/28 06:32:48;;;;;;;24.20;6.25;;;;;;;;;;5039045;28;20114;-70
2022/07/28 06:35:16;;;;;;;21.27;6.13;;;;;;;;;;5040368;28;20410;-70
2022/07/28 06:37:46;;;;;;;22.98;5.75;;;;;;;;;;5035144;28;20049;-72
2022/07/28 06:40:14;;;;;;;15.73;5.72;;;;;;;;;;5036406;28;20052;-71
2022/07/28 06:42:40;;;;;;;22.20;5.63;;;;;;;;;;5031753;28;20095;-72
2022/07/28 06:45:08;;;;;;;14.95;5.40;;;;;;;;;;5044329;28;20113;-69
2022/07/28 06:47:34;;;;;;;18.00;5.65;;;;;;;;;;5038853;28;20107;-75
2022/07/28 06:50:00;;;;;;;19.35;5.50;;;;;;;;;;5035843;28;20037;-70
2022/07/28 06:52:26;;;;;;;18.55;5.45;;;;;;;;;;5038131;28;20045;-74
2022/07/28 06:54:52;;;;;;;19.13;5.38;;;;;;;;;;5038171;28;20042;-70
2022/07/28 06:57:21;;;;;;;11.93;5.00;;;;;;;;;;5036782;28;20056;-74
2022/07/28 06:59:48;;;;;;;13.60;5.65;;;;;;;;;;5035853;28;20042;-73
2022/07/28 07:02:15;;;;;;;18.45;5.55;;;;;;;;;;5038287;28;20053;-71
2022/07/28 07:04:41;;;;;;;17.65;5.18;;;;;;;;;;5045790;28;20037;-70
2022/07/28 07:07:07;;;;;;;17.63;5.55;;;;;;;;;;5045632;28;20060;-70
2022/07/28 07:09:34;;;;;;;18.20;5.85;;;;;;;;;;5035200;28;20037;-70
2022/07/28 07:12:00;;;;;;;18.45;5.45;;;;;;;;;;5030871;28;20045;-70
2022/07/28 07:14:26;;;;;;;14.15;4.93;;;;;;;;;;5036994;28;20123;-72
2022/07/28 07:16:52;;;;;;;20.20;5.28;;;;;;;;;;5041943;28;20478;-71
2022/07/28 07:19:19;;;;;;;20.30;5.40;;;;;;;;;;5047093;28;20147;-70
2022/07/28 07:21:46;;;;;;;21.52;5.85;;;;;;;;;;5040983;28;20592;-71
2022/07/28 07:24:12;;;;;;;19.23;5.15;;;;;;;;;;5034583;28;20083;-71
2022/07/28 07:26:38;;;;;;;18.08;5.32;;;;;;;;;;5036681;28;20072;-72
2022/07/28 07:29:06;;;;;;;19.70;5.13;;;;;;;;;;5037890;28;20080;-72
2022/07/28 07:31:33;;;;;;;17.92;5.15;;;;;;;;;;5042863;28;20048;-71
2022/07/28 07:33:59;;;;;;;20.38;5.28;;;;;;;;;;5035732;28;20560;-74
2022/07/28 07:36:25;;;;;;;23.42;5.65;;;;;;;;;;5034193;28;20500;-69
2022/07/28 07:38:51;;;;;;;17.33;6.22;;;;;;;;;;5035394;28;20117;-71
2022/07/28 07:41:17;;;;;;;17.40;5.60;;;;;;;;;;5043607;28;20049;-70
2022/07/28 07:43:44;;;;;;;21.38;5.57;;;;;;;;;;5039253;28;20114;-72
2022/07/28 07:46:10;;;;;;;16.40;4.80;;;;;;;;;;5031092;28;20049;-72
2022/07/28 07:48:36;;;;;;;16.45;5.43;;;;;;;;;;5030863;28;20095;-72
2022/07/28 07:51:02;;;;;;;15.15;5.20;;;;;;;;;;5028876;28;20439;-73
2022/07/28 07:53:28;;;;;;;14.25;5.30;;;;;;;;;;5046966;28;20049;-71
2022/07/28 07:55:54;;;;;;;14.55;5.13;;;;;;;;;;5046021;28;20446;-69
2022/07/28 07:58:20;;;;;;;16.00;5.07;;;;;;;;;;5047082;28;20091;-72
2022/07/28 08:00:46;;;;;;;17.55;4.80;;;;;;;;;;5042243;28;20045;-70
2022/07/28 08:03:14;;;;;;;15.15;5.35;;;;;;;;;;5044971;28;20049;-69
2022/07/28 08:05:40;;;;;;;20.55;5.25;;;;;;;;;;5038432;28;20091;-70
2022/07/28 08:08:06;;;;;;;17.15;5.30;;;;;;;;;;5045667;28;20073;-71
2022/07/28 08:10:34;;;;;;;14.95;4.93;;;;;;;;;;5041707;28;20481;-70
2022/07/28 08:13:00;;;;;;;21.38;5.38;;;;;;;;;;5041519;28;20060;-73
2022/07/28 08:15:25;;;;;;;14.00;4.90;;;;;;;;;;5033005;28;20054;-73
2022/07/28 08:17:51;;;;;;;15.18;5.13;;;;;;;;;;5039830;28;20073;-72
2022/07/28 08:20:17;;;;;;;21.42;5.68;;;;;;;;;;5032280;28;20437;-69
2022/07/28 08:22:49;;;;;;;16.20;5.13;;;;;;;;;;5033871;28;20045;-73
2022/07/28 08:25:16;;;;;;;21.00;5.22;;;;;;;;;;5032609;28;20049;-73
2022/07/28 08:27:42;;;;;;;16.52;5.45;;;;;;;;;;5040255;28;20049;-72
2022/07/28 08:30:09;;;;;;;14.50;5.45;;;;;;;;;;5034579;28;20314;-71
2022/07/28 08:32:35;;;;;;;14.82;5.18;;;;;;;;;;5038679;28;20045;-72
2022/07/28 08:35:01;;;;;;;18.17;5.18;;;;;;;;;;5039188;28;20541;-71
2022/07/28 08:37:27;;;;;;;18.17;5.45;;;;;;;;;;5043413;28;20041;-72
2022/07/28 08:39:52;;;;;;;16.45;5.45;;;;;;;;;;5048873;28;20041;-75
2022/07/28 08:42:37;;;;;;;18.05;5.35;;;;;;;;;;5035349;28;20679;-71
2022/07/28 08:45:05;;;;;;;17.08;5.72;;;;;;;;;;5036607;28;20044;-72
2022/07/28 08:47:34;;;;;;;21.17;5.90;;;;;;;;;;5040778;28;20053;-70
2022/07/28 08:50:00;;;;;;;20.42;5.45;;;;;;;;;;5032056;28;20037;-72
2022/07/28 08:52:31;;;;;;;18.58;5.82;;;;;;;;;;5042546;28;20045;-74
2022/07/28 08:55:00;;;;;;;13.40;4.82;;;;;;;;;;5045100;28;20084;-74
2022/07/28 08:57:40;;;;;;;15.32;5.45;;;;;;;;;;5033076;28;20418;-73
2022/07/28 09:00:11;;;;;;;17.48;5.20;;;;;;;;;;5031493;28;20396;-74
2022/07/28 09:02:41;;;;;;;16.83;5.10;;;;;;;;;;5035977;28;20048;-73
2022/07/28 09:05:08;;;;;;;17.83;5.45;;;;;;;;;;5038455;28;20061;-70
2022/07/28 09:07:38;;;;;;;16.23;5.13;;;;;;;;;;5031426;28;20106;-71
2022/07/28 09:10:05;;;;;;;17.95;5.15;;;;;;;;;;5041118;28;20080;-71
2022/07/28 09:12:35;;;;;;;13.98;4.68;;;;;;;;;;5038781;28;20037;-72
2022/07/28 09:15:03;;;;;;;19.13;5.32;;;;;;;;;;5033181;28;20111;-73
2022/07/28 09:17:28;;;;;;;16.92;5.20;;;;;;;;;;5030602;28;20056;-70
2022/07/28 09:19:55;;;;;;;15.38;4.72;;;;;;;;;;5033232;28;20237;-71
2022/07/28 09:22:21;;;;;;;14.02;5.15;;;;;;;;;;5038618;28;20098;-71
2022/07/28 09:24:47;;;;;;;18.58;5.35;;;;;;;;;;5031798;28;20136;-75
2022/07/28 09:27:14;;;;;;;16.10;5.25;;;;;;;;;;5033256;28;20060;-69
2022/07/28 09:29:45;;;;;;;15.57;5.82;;;;;;;;;;5045069;28;20041;-72
2022/07/28 09:32:19;;;;;;;19.10;5.70;;;;;;;;;;5032736;28;20103;-72
2022/07/28 09:34:48;;;;;;;16.00;5.85;;;;;;;;;;5033041;28;20049;-75
2022/07/28 09:37:18;;;;;;;16.83;5.93;;;;;;;;;;5034472;28;20049;-73
2022/07/28 09:39:45;;;;;;;19.83;6.35;;;;;;;;;;5043334;28;20069;-73
2022/07/28 09:42:11;;;;;;;13.57;5.35;;;;;;;;;;5031478;28;20046;-74
2022/07/28 09:44:36;;;;;;;16.42;5.95;;;;;;;;;;5035149;28;20103;-74
2022/07/28 09:47:21;;;;;;;16.52;5.30;;;;;;;;;;5036643;28;20045;-77
2022/07/28 09:49:48;;;;;;;20.15;5.72;;;;;;;;;;5036020;28;20057;-74
2022/07/28 09:52:29;;;;;;;16.70;5.65;;;;;;;;;;5076768;28;20045;-71
2022/07/28 09:55:06;;;;;;;15.90;5.60;;;;;;;;;;5046218;28;20102;-73
2022/07/28 09:57:34;;;;;;;17.02;5.90;;;;;;;;;;5037764;28;20037;-71
2022/07/28 10:00:00;;;;;;;15.60;6.35;;;;;;;;;;5050668;28;20041;-72
2022/07/28 10:02:30;;;;;;;19.75;6.25;;;;;;;;;;5042319;28;20139;-72
2022/07/28 10:04:58;;;;;;;13.38;5.55;;;;;;;;;;5041526;28;20449;-73
2022/07/28 10:07:28;;;;;;;16.70;6.50;;;;;;;;;;5034533;28;20065;-75
2022/07/28 10:10:00;;;;;;;15.32;5.93;;;;;;;;;;5049602;28;20067;-73
2022/07/28 10:12:32;;;;;;;17.30;5.53;;;;;;;;;;5034664;28;20064;-73
2022/07/28 10:16:09;;;;;;;13.27;5.70;;;;;;;;;;5030359;28;20507;-75
2022/07/28 10:17:56;;;;;;;16.17;6.20;;;;;;;;;;5040901;28;20069;-73
2022/07/28 10:20:21;;;;;;;17.85;6.20;;;;;;;;;;5040665;28;20080;-72
2022/07/28 10:22:48;;;;;;;16.95;6.07;;;;;;;;;;5033677;28;20044;-74
2022/07/28 10:25:15;;;;;;;21.80;6.10;;;;;;;;;;5031589;28;20490;-72
2022/07/28 10:27:44;;;;;;;15.50;5.70;;;;;;;;;;5032754;28;20490;-73
2022/07/28 10:30:11;;;;;;;18.65;5.40;;;;;;;;;;5034524;28;20041;-75
2022/07/28 10:32:40;;;;;;;15.82;5.57;;;;;;;;;;5035719;28;20487;-74
2022/07/28 10:35:26;;;;;;;15.27;5.80;;;;;;;;;;5030575;28;20046;-72
2022/07/28 10:37:59;;;;;;;13.45;5.60;;;;;;;;;;5037236;28;20105;-75
2022/07/28 10:40:29;;;;;;;14.98;5.28;;;;;;;;;;5029944;28;20504;-74
2022/07/28 10:42:55;;;;;;;16.70;5.53;;;;;;;;;;5030338;28;20050;-74
2022/07/28 10:45:22;;;;;;;16.33;5.80;;;;;;;;;;5030971;28;20702;-74
2022/07/28 10:47:49;;;;;;;15.02;5.22;;;;;;;;;;5032116;28;20060;-75
2022/07/28 10:50:15;;;;;;;16.15;4.97;;;;;;;;;;5042077;28;20056;-76
2022/07/28 10:52:42;;;;;;;14.30;5.40;;;;;;;;;;5032472;28;20395;-74
2022/07/28 10:55:47;;;;;;;22.98;5.32;;;;;;;;;;5041717;28;20055;-69
2022/07/28 10:58:26;;;;;;;14.65;5.40;;;;;;;;;;5040898;28;20059;-74
2022/07/28 11:00:52;;;;;;;14.75;5.57;;;;;;;;;;5044795;28;20623;-76
2022/07/28 11:03:45;;;;;;;20.55;5.43;;;;;;;;;;5038653;28;20590;-77
2022/07/28 11:06:34;;;;;;;14.20;4.97;;;;;;;;;;5030726;28;20130;-77
2022/07/28 11:09:15;;;;;;;20.83;5.43;;;;;;;;;;5033381;28;20055;-76
2022/07/28 11:11:52;;;;;;;10.95;4.85;;;;;;;;;;5037853;28;20041;-76
2022/07/28 11:14:24;;;;;;;17.58;5.13;;;;;;;;;;5029642;28;20057;-76
2022/07/28 11:17:02;;;;;;;19.48;5.03;;;;;;;;;;5040377;28;20548;-76
2022/07/28 11:19:30;;;;;;;15.52;5.53;;;;;;;;;;5034133;28;20049;-76
2022/07/28 11:22:17;;;;;;;11.02;4.38;;;;;;;;;;5041378;28;20045;-76
2022/07/28 11:25:11;;;;;;;16.85;4.75;;;;;;;;;;5029262;28;20490;-76
2022/07/28 11:27:40;;;;;;;14.53;4.90;;;;;;;;;;5034844;28;20049;-75
2022/07/28 11:30:27;;;;;;;9.93;4.47;;;;;;;;;;5029743;28;20298;-76
2022/07/28 11:32:53;;;;;;;12.98;4.38;;;;;;;;;;5038235;28;20041;-75
2022/07/28 11:35:26;;;;;;;16.00;4.70;;;;;;;;;;5028491;28;20082;-76
2022/07/28 11:38:01;;;;;;;16.40;4.37;;;;;;;;;;5045471;28;20509;-75
2022/07/28 11:40:48;;;;;;;9.27;4.10;;;;;;;;;;5040350;28;20294;-78
2022/07/28 11:43:20;;;;;;;19.05;4.75;;;;;;;;;;5037480;28;20042;-76
2022/07/28 11:45:46;;;;;;;11.85;4.80;;;;;;;;;;5031875;28;20120;-78
2022/07/28 11:48:17;;;;;;;15.70;4.15;;;;;;;;;;5030881;28;20053;-78
2022/07/28 11:51:02;;;;;;;13.77;4.22;;;;;;;;;;5031930;28;20049;-77
2022/07/28 11:53:39;;;;;;;11.18;4.00;;;;;;;;;;5029617;28;20081;-77
2022/07/28 11:56:07;;;;;;;13.15;4.18;;;;;;;;;;5041770;28;20234;-77
2022/07/28 11:58:33;;;;;;;13.00;3.75;;;;;;;;;;5030556;28;20050;-75
2022/07/28 12:01:14;;;;;;;11.88;4.18;;;;;;;;;;5031908;28;20107;-78
2022/07/28 12:03:42;;;;;;;12.57;4.22;;;;;;;;;;5035132;28;20060;-75
2022/07/28 12:06:08;;;;;;;12.15;3.83;;;;;;;;;;5030421;28;20049;-76
2022/07/28 12:08:53;;;;;;;9.95;3.72;;;;;;;;;;5030350;28;20056;-77
2022/07/28 12:11:19;;;;;;;9.68;3.97;;;;;;;;;;5030501;28;20163;-76
2022/07/28 12:13:56;;;;;;;14.52;3.97;;;;;;;;;;5034342;28;20087;-79
2022/07/28 12:16:26;;;;;;;13.02;3.78;;;;;;;;;;5034832;28;20061;-76
2022/07/28 12:18:52;;;;;;;11.57;3.80;;;;;;;;;;5035847;28;20053;-78
2022/07/28 12:21:42;;;;;;;14.38;3.70;;;;;;;;;;5043769;28;20076;-77
2022/07/28 12:24:11;;;;;;;15.70;4.05;;;;;;;;;;5030977;28;20092;-76
2022/07/28 12:26:39;;;;;;;11.02;3.63;;;;;;;;;;5031718;28;20124;-79
2022/07/28 12:29:06;;;;;;;11.23;3.50;;;;;;;;;;5036489;28;20544;-76
2022/07/28 12:31:32;;;;;;;15.77;4.50;;;;;;;;;;5029733;28;20099;-77
2022/07/28 12:33:59;;;;;;;15.30;4.07;;;;;;;;;;5031699;28;20050;-77
2022/07/28 12:36:26;;;;;;;14.10;3.72;;;;;;;;;;5043139;28;20056;-76
2022/07/28 12:38:53;;;;;;;13.20;4.00;;;;;;;;;;5045184;28;20042;-76
2022/07/28 12:41:19;;;;;;;10.07;3.25;;;;;;;;;;5037303;28;20088;-75
2022/07/28 12:43:52;;;;;;;13.02;3.95;;;;;;;;;;5048076;28;20051;-74
2022/07/28 12:46:24;;;;;;;16.38;3.78;;;;;;;;;;5047628;28;20045;-73
2022/07/28 12:48:51;;;;;;;11.77;3.88;;;;;;;;;;5048904;28;20433;-74
2022/07/28 12:51:40;;;;;;;15.25;3.70;;;;;;;;;;5037842;28;20084;-74
2022/07/28 12:54:10;;;;;;;16.50;3.88;;;;;;;;;;5038501;28;20049;-74
2022/07/28 12:56:45;;;;;;;14.45;3.53;;;;;;;;;;5046970;28;20048;-74
2022/07/28 12:59:15;;;;;;;12.45;3.72;;;;;;;;;;5041146;28;20049;-72
2022/07/28 13:01:57;;;;;;;10.95;3.58;;;;;;;;;;5043490;28;20049;-76
2022/07/28 13:04:43;;;;;;;12.27;3.55;;;;;;;;;;5041167;28;20108;-77
2022/07/28 13:07:22;;;;;;;9.95;3.70;;;;;;;;;;5054624;28;20053;-74
2022/07/28 13:10:09;;;;;;;16.00;3.75;;;;;;;;;;5043907;28;20049;-73
2022/07/28 13:12:35;;;;;;;9.10;3.28;;;;;;;;;;5032519;28;20049;-73
2022/07/28 13:15:14;;;;;;;12.80;3.35;;;;;;;;;;5044209;28;20064;-75
2022/07/28 13:17:52;;;;;;;15.77;3.97;;;;;;;;;;5042427;28;20046;-73
2022/07/28 13:20:19;;;;;;;12.23;3.90;;;;;;;;;;5049391;28;20458;-77
2022/07/28 13:22:45;;;;;;;11.98;3.75;;;;;;;;;;5050432;28;20076;-74
2022/07/28 13:25:12;;;;;;;12.10;3.60;;;;;;;;;;5039452;28;20523;-73
2022/07/28 13:27:38;;;;;;;12.48;3.55;;;;;;;;;;5047127;28;20107;-75
2022/07/28 13:30:05;;;;;;;20.27;4.07;;;;;;;;;;5044115;28;20556;-73
2022/07/28 13:32:32;;;;;;;16.70;3.92;;;;;;;;;;5034009;28;20042;-75
2022/07/28 13:34:59;;;;;;;14.98;3.90;;;;;;;;;;5048518;28;20045;-74
2022/07/28 13:37:25;;;;;;;12.75;3.50;;;;;;;;;;5041111;28;20041;-75
2022/07/28 13:39:51;;;;;;;9.35;3.20;;;;;;;;;;5033512;28;20099;-75
2022/07/28 13:42:17;;;;;;;15.57;3.53;;;;;;;;;;5036319;28;20092;-74
2022/07/28 13:44:43;;;;;;;13.30;3.33;;;;;;;;;;5038960;28;20550;-74
2022/07/28 13:47:09;;;;;;;15.25;3.90;;;;;;;;;;5039186;28;20041;-77
2022/07/28 13:49:36;;;;;;;16.75;3.85;;;;;;;;;;5068794;28;20120;-73
2022/07/28 13:52:04;;;;;;;13.68;3.38;;;;;;;;;;5046992;28;20083;-76
2022/07/28 13:54:30;;;;;;;10.98;3.30;;;;;;;;;;5048634;28;20494;-78
2022/07/28 13:56:56;;;;;;;16.20;3.17;;;;;;;;;;5045313;28;20041;-74
2022/07/28 13:59:22;;;;;;;15.50;3.50;;;;;;;;;;5033772;28;20403;-75
2022/07/28 14:01:50;;;;;;;18.40;3.65;;;;;;;;;;5041780;28;20045;-74
2022/07/28 14:04:17;;;;;;;14.10;3.40;;;;;;;;;;5040563;28;20055;-75
2022/07/28 14:06:44;;;;;;;13.13;3.00;;;;;;;;;;5041708;28;20045;-73
2022/07/28 14:09:10;;;;;;;14.05;3.25;;;;;;;;;;5034811;28;20049;-75
2022/07/28 14:11:37;;;;;;;12.75;3.42;;;;;;;;;;5029924;28;20110;-73
2022/07/28 14:14:03;;;;;;;12.30;3.25;;;;;;;;;;5035240;28;20142;-72
2022/07/28 14:16:30;;;;;;;13.75;3.30;;;;;;;;;;5033574;28;20038;-72
2022/07/28 14:18:56;;;;;;;6.32;2.90;;;;;;;;;;5028096;28;20388;-72
2022/07/28 14:21:23;;;;;;;17.50;3.38;;;;;;;;;;5032335;28;20089;-74
2022/07/28 14:23:49;;;;;;;18.95;3.88;;;;;;;;;;5031506;28;20507;-75
2022/07/28 14:26:15;;;;;;;18.13;3.42;;;;;;;;;;5032754;28;20049;-72
2022/07/28 14:28:41;;;;;;;14.55;3.42;;;;;;;;;;5044901;28;20108;-73
2022/07/28 14:31:07;;;;;;;19.95;3.80;;;;;;;;;;5051464;28;20050;-74
2022/07/28 14:33:33;;;;;;;12.52;3.28;;;;;;;;;;5044040;28;20050;-74
2022/07/28 14:35:58;;;;;;;10.27;3.45;;;;;;;;;;5036282;28;20107;-72
2022/07/28 14:38:25;;;;;;;15.73;3.95;;;;;;;;;;5045781;28;20041;-73
2022/07/28 14:40:52;;;;;;;12.50;3.47;;;;;;;;;;5051178;28;20041;-73
2022/07/28 14:43:18;;;;;;;16.25;4.13;;;;;;;;;;5049150;28;20099;-73
2022/07/28 14:45:44;;;;;;;12.75;3.10;;;;;;;;;;5049022;28;20056;-73